Time;durP1;ratioP1;P1;durP2;ratioP2;P2;SDS_P1;SDS_P2;PMS_P1;PMS_P2;Temp;Humidity;BMP_temperature;BMP_pressure;BME280_temperature;BME280_humidity;BME280_pressure;Samples;Min_cycle;Max_cycle;Signal;HPM_P1;HPM_P2
2022/12/10 00:00:39;;;;;;;5.85;2.95;;;22.40;47.00;;;20.67;54.83;94550.88;4948092;29;20130;-41
2022/12/10 00:03:05;;;;;;;5.60;3.33;;;22.40;46.90;;;20.68;54.74;94549.78;4946774;29;20397;-40
2022/12/10 00:05:34;;;;;;;4.07;3.00;;;22.40;47.10;;;20.68;54.62;94553.25;4947447;29;20035;-41
2022/12/10 00:07:59;;;;;;;4.32;3.22;;;22.40;46.90;;;20.66;54.38;94550.09;4931075;29;20571;-41
2022/12/10 00:10:25;;;;;;;4.25;3.10;;;22.40;47.10;;;20.67;54.54;94557.00;4956101;28;20039;-41
2022/12/10 00:12:51;;;;;;;3.70;2.90;;;22.40;47.00;;;20.67;54.41;94553.56;4975283;28;20342;-43
2022/12/10 00:15:17;;;;;;;3.30;2.70;;;22.40;47.00;;;20.67;54.76;94554.34;4967181;28;20126;-41
2022/12/10 00:17:43;;;;;;;3.83;3.15;;;22.40;47.00;;;20.66;54.35;94560.78;4968045;28;20039;-41
2022/12/10 00:20:09;;;;;;;3.42;2.70;;;22.40;47.00;;;20.66;54.50;94557.31;4968746;28;20031;-41
2022/12/10 00:22:35;;;;;;;4.97;3.35;;;22.40;46.90;;;20.66;54.46;94559.97;4971450;28;20113;-42
2022/12/10 00:25:01;;;;;;;4.00;3.10;;;22.40;46.90;;;20.65;54.74;94553.84;4953917;28;20114;-42
2022/12/10 00:27:27;;;;;;;3.83;3.03;;;22.30;46.90;;;20.65;54.57;94547.72;4969292;28;20115;-42
2022/12/10 00:29:52;;;;;;;4.13;3.15;;;22.40;47.00;;;20.64;55.20;94546.91;4971061;28;20125;-42
2022/12/10 00:32:18;;;;;;;4.43;3.08;;;22.40;47.00;;;20.64;54.10;94546.91;4970924;28;20121;-46
2022/12/10 00:34:44;;;;;;;4.03;2.83;;;22.40;46.90;;;20.64;54.50;94544.25;4970796;28;20041;-42
2022/12/10 00:37:10;;;;;;;3.22;2.67;;;22.30;46.90;;;20.64;54.86;94535.44;4970844;28;20510;-42
2022/12/10 00:39:35;;;;;;;3.35;2.65;;;22.30;46.90;;;20.64;54.25;94541.56;4952972;28;20126;-42
2022/12/10 00:42:02;;;;;;;3.75;2.67;;;22.40;46.80;;;20.64;54.64;94541.56;4970527;28;20125;-41
2022/12/10 00:44:27;;;;;;;3.28;2.60;;;22.40;46.80;;;20.64;54.27;94551.47;4966440;28;20147;-41
2022/12/10 00:46:53;;;;;;;4.07;2.58;;;22.40;46.80;;;20.63;54.95;94550.66;4951879;28;20552;-41
2022/12/10 00:49:22;;;;;;;3.10;2.75;;;22.40;46.90;;;20.64;54.29;94554.13;4951239;28;20539;-42
2022/12/10 00:51:48;;;;;;;3.58;2.80;;;22.30;47.00;;;20.62;54.96;94567.78;4951266;28;20031;-42
2022/12/10 00:54:14;;;;;;;4.95;2.90;;;22.30;47.00;;;20.62;54.43;94559.78;4951278;28;20097;-42
2022/12/10 00:56:40;;;;;;;4.00;2.90;;;22.30;47.00;;;20.62;54.79;94565.13;4951454;28;20138;-41
2022/12/10 00:59:05;;;;;;;3.65;2.70;;;22.30;47.00;;;20.62;54.76;94575.78;4950773;28;20058;-42
2022/12/10 01:01:41;;;;;;;3.35;2.60;;;22.30;47.10;;;20.62;54.50;94577.69;4950413;28;20114;-42
2022/12/10 01:04:11;;;;;;;4.38;3.03;;;22.30;46.90;;;20.61;54.58;94571.53;4950725;28;20089;-42
2022/12/10 01:06:48;;;;;;;3.15;2.40;;;22.30;47.00;;;20.62;54.96;94564.31;4949662;28;20035;-41
2022/12/10 01:09:17;;;;;;;3.78;2.65;;;22.40;47.10;;;20.61;54.97;94565.41;4948961;29;20071;-42
2022/12/10 01:11:44;;;;;;;4.22;2.92;;;22.30;47.00;;;20.60;54.42;94567.28;4968796;28;20067;-42
2022/12/10 01:14:13;;;;;;;3.65;2.70;;;22.30;47.00;;;20.59;54.62;94573.69;4969706;28;20050;-42
2022/12/10 01:16:39;;;;;;;3.13;2.47;;;22.30;47.10;;;20.60;55.29;94577.97;4968774;28;20031;-41
2022/12/10 01:19:05;;;;;;;3.45;2.75;;;22.30;47.10;;;20.59;54.60;94575.56;4952401;28;20038;-41
2022/12/10 01:21:31;;;;;;;4.18;2.90;;;22.40;47.00;;;20.59;54.57;94573.69;4969417;28;20467;-41
2022/12/10 01:23:57;;;;;;;4.03;2.70;;;22.30;47.00;;;20.59;54.78;94575.56;4968691;28;20034;-41
2022/12/10 01:26:26;;;;;;;4.00;3.25;;;22.30;47.00;;;20.60;54.44;94588.66;4969780;28;20086;-42
2022/12/10 01:28:52;;;;;;;4.38;3.10;;;22.30;46.90;;;20.59;54.75;94592.38;4969996;28;20094;-43
2022/12/10 01:31:21;;;;;;;4.53;2.65;;;22.30;47.00;;;20.60;54.93;94596.66;4969329;28;20043;-43
2022/12/10 01:33:47;;;;;;;3.65;2.95;;;22.30;47.10;;;20.59;54.35;94596.94;4969815;28;20047;-42
2022/12/10 01:36:18;;;;;;;4.60;3.10;;;22.40;47.00;;;20.59;53.65;94592.38;4968408;28;20027;-43
2022/12/10 01:38:44;;;;;;;4.80;3.20;;;22.40;47.10;;;20.59;54.49;94576.34;4952533;28;20468;-41
2022/12/10 01:41:17;;;;;;;3.95;2.90;;;22.30;47.10;;;20.59;54.84;94581.69;4962731;28;20054;-40
2022/12/10 01:44:07;;;;;;;3.03;2.58;;;22.30;47.00;;;20.60;54.39;94588.66;4958682;28;20380;-41
2022/12/10 01:46:35;;;;;;;;;;;22.30;47.10;;;20.56;54.81;94589.50;4970190;28;20042;-40
2022/12/10 01:49:03;;;;;;;3.22;2.72;;;22.30;47.00;;;20.55;54.81;94587.91;4973119;28;19925;-40
2022/12/10 01:51:31;;;;;;;3.75;2.88;;;22.30;47.00;;;20.55;54.79;94585.22;4971297;28;20050;-40
2022/12/10 01:53:57;;;;;;;4.38;3.05;;;22.30;47.00;;;20.56;55.20;94590.28;4973339;28;20488;-42
2022/12/10 01:56:23;;;;;;;4.43;2.85;;;22.30;47.10;;;20.55;54.46;94594.03;4971672;28;20046;-41
2022/12/10 01:58:51;;;;;;;3.97;2.55;;;22.30;47.10;;;20.56;54.68;94594.84;4955981;28;20031;-41
2022/12/10 02:02:00;;;;;;;3.92;3.08;;;22.30;47.10;;;20.57;54.78;94588.41;4971520;28;20034;-41
2022/12/10 02:05:13;;;;;;;4.40;2.80;;;22.30;47.00;;;20.57;55.50;94591.09;4972938;28;20125;-41
2022/12/10 02:07:48;;;;;;;4.30;3.03;;;22.30;47.00;;;20.55;54.76;94590.56;4909294;28;20066;-41
2022/12/10 02:10:33;;;;;;;3.13;2.70;;;22.30;47.10;;;20.54;55.02;94595.13;4961921;28;20043;-41
2022/12/10 02:13:21;;;;;;;3.67;2.80;;;22.30;47.10;;;20.55;54.37;94595.91;4952343;28;20035;-41
2022/12/10 02:15:56;;;;;;;4.13;2.53;;;22.30;47.10;;;20.54;55.33;94594.34;4971463;28;20389;-41
2022/12/10 02:18:26;;;;;;;3.63;2.58;;;22.30;47.10;;;20.53;54.97;94590.88;4971352;28;20062;-42
2022/12/10 02:21:04;;;;;;;4.07;2.50;;;22.20;47.20;;;20.53;55.02;94593.53;4971309;28;20031;-41
2022/12/10 02:23:39;;;;;;;3.50;2.65;;;22.20;47.20;;;20.53;54.46;94593.53;4971189;28;20093;-41
2022/12/10 02:26:49;;;;;;;3.67;2.90;;;22.20;47.20;;;20.55;54.44;94587.91;4955360;28;20035;-42
2022/12/10 02:29:19;;;;;;;4.05;2.92;;;22.20;47.10;;;20.51;54.91;94593.03;4970065;28;20031;-42
2022/12/10 02:31:56;;;;;;;4.05;2.50;;;22.30;47.10;;;20.48;54.91;94591.72;4954792;28;20045;-41
2022/12/10 02:34:22;;;;;;;4.05;2.80;;;22.20;47.00;;;20.52;54.59;94591.16;4971251;28;20035;-42
2022/12/10 02:36:49;;;;;;;3.35;2.78;;;22.20;47.00;;;20.52;54.57;94594.63;4971341;28;20065;-42
2022/12/10 02:39:20;;;;;;;3.33;2.85;;;22.20;47.10;;;20.52;54.39;94578.59;4970726;28;20077;-41
2022/12/10 02:41:50;;;;;;;3.28;2.80;;;22.10;47.10;;;20.50;55.05;94580.75;4986736;28;20042;-42
2022/12/10 02:44:16;;;;;;;4.55;2.83;;;22.10;47.10;;;20.50;54.17;94588.78;4954691;28;20508;-41
2022/12/10 02:46:42;;;;;;;3.53;2.67;;;22.20;47.00;;;20.50;54.23;94591.44;4986899;28;20658;-41
2022/12/10 02:49:08;;;;;;;3.70;3.10;;;22.20;47.00;;;20.49;54.81;94587.19;4955030;28;20034;-41
2022/12/10 02:51:33;;;;;;;3.40;2.90;;;22.20;47.10;;;20.50;54.16;94578.09;4969696;28;20127;-42
2022/12/10 02:54:05;;;;;;;3.13;2.53;;;22.20;47.00;;;20.49;55.06;94571.94;4971090;28;20066;-42
2022/12/10 02:56:40;;;;;;;3.60;2.72;;;22.20;47.00;;;20.51;54.85;94576.22;4986634;28;20035;-43
2022/12/10 03:00:01;;;;;;;4.10;2.95;;;22.20;46.90;;;20.48;53.99;94575.72;4985901;28;20114;-42
2022/12/10 03:02:39;;;;;;;2.70;2.40;;;22.20;47.00;;;20.47;54.77;94578.66;4949545;28;20118;-42
2022/12/10 03:05:18;;;;;;;3.90;2.75;;;22.20;47.00;;;20.47;54.43;94584.00;4919402;29;20031;-42
2022/12/10 03:08:21;;;;;;;4.07;2.60;;;22.10;47.00;;;20.48;54.78;94590.94;4948718;28;20062;-42
2022/12/10 03:11:14;;;;;;;3.65;2.58;;;22.10;47.00;;;20.47;54.29;94578.66;4989974;28;20494;-42
2022/12/10 03:14:10;;;;;;;4.40;2.90;;;22.10;46.90;;;20.47;54.17;94573.31;4973067;28;20466;-41
2022/12/10 03:16:42;;;;;;;3.00;2.58;;;22.10;46.80;;;20.44;53.64;94553.34;4989927;28;20128;-42
2022/12/10 03:19:11;;;;;;;3.85;2.88;;;22.10;46.70;;;20.45;54.16;94548.78;4974003;28;20030;-43
2022/12/10 03:21:37;;;;;;;3.10;2.33;;;22.10;46.60;;;20.46;53.51;94553.03;4973011;28;20652;-42
2022/12/10 03:24:03;;;;;;;4.30;2.70;;;22.20;46.50;;;20.46;53.73;94555.72;4957928;28;20041;-42
2022/12/10 03:26:29;;;;;;;3.35;2.53;;;22.20;46.90;;;20.48;54.51;94561.56;4973281;28;20495;-42
2022/12/10 03:29:06;;;;;;;3.17;2.30;;;22.20;47.10;;;20.49;54.46;94565.81;4973729;28;20054;-42
2022/12/10 03:31:32;;;;;;;2.92;2.42;;;22.20;47.00;;;20.48;54.31;94558.88;4988544;28;20038;-42
2022/12/10 03:33:57;;;;;;;3.00;2.60;;;22.20;46.80;;;20.51;53.90;94560.19;4989792;28;20117;-42
2022/12/10 03:36:23;;;;;;;3.05;2.63;;;22.30;47.20;;;20.50;54.00;94562.06;4957238;28;20171;-42
2022/12/10 03:38:49;;;;;;;2.85;2.28;;;22.30;47.20;;;20.51;53.77;94563.66;4973434;28;20073;-42
2022/12/10 03:41:15;;;;;;;3.75;2.30;;;22.30;47.50;;;20.53;54.66;94555.34;4976552;28;20038;-42
2022/12/10 03:43:52;;;;;;;3.85;2.20;;;22.20;47.30;;;20.53;55.13;94561.47;4969041;28;20715;-43
2022/12/10 03:46:18;;;;;;;4.93;2.53;;;22.20;47.50;;;20.53;54.31;94572.16;4971123;28;20181;-41
2022/12/10 03:48:44;;;;;;;2.97;2.40;;;22.20;46.90;;;20.52;54.19;94569.78;4953501;28;20061;-42
2022/12/10 03:51:09;;;;;;;3.13;2.38;;;22.30;46.70;;;20.51;53.82;94569.00;4979083;28;20063;-42
2022/12/10 03:53:35;;;;;;;3.53;2.42;;;22.20;46.50;;;20.52;52.97;94575.91;4986780;28;20045;-42
2022/12/10 03:56:01;;;;;;;3.35;2.83;;;22.20;46.30;;;20.51;53.12;94568.19;5005520;28;20069;-41
2022/12/10 03:58:26;;;;;;;3.67;2.42;;;22.20;46.30;;;20.51;52.81;94563.66;5026609;23;20136;-62
2022/12/10 04:00:52;;;;;;;3.22;2.50;;;22.20;46.20;;;20.51;52.95;94558.31;5020245;28;20057;-62
2022/12/10 04:03:18;;;;;;;2.70;2.35;;;22.20;46.20;;;20.50;53.19;94551.38;5017853;28;20107;-61
2022/12/10 04:05:44;;;;;;;3.67;2.78;;;22.20;46.20;;;20.50;53.27;94556.72;5012010;28;20030;-61
2022/12/10 04:08:09;;;;;;;3.88;3.03;;;22.20;46.10;;;20.50;53.01;94559.38;5030306;28;20128;-61
2022/12/10 04:10:37;;;;;;;3.08;2.38;;;22.20;46.00;;;20.49;53.18;94565.81;5020862;28;20074;-62
2022/12/10 04:18:31;;;;;;;2.83;2.30;;;22.20;46.20;;;20.48;53.25;94575.72;5029779;28;20052;-62
2022/12/10 04:29:10;;;;;;;3.20;2.35;;;22.30;46.70;;;20.61;53.54;94579.56;5029828;28;20412;-61
2022/12/10 04:31:36;;;;;;;3.53;2.70;;;22.30;46.60;;;20.64;53.39;94581.66;4982228;28;20061;-62
2022/12/10 04:34:02;;;;;;;6.07;3.00;;;22.30;46.60;;;20.68;54.09;94585.31;4992784;28;20084;-62
2022/12/10 04:36:27;;;;;;;2.83;2.13;;;22.30;46.90;;;20.67;53.83;94578.38;5006690;28;20114;-63
2022/12/10 04:38:53;;;;;;;2.95;2.22;;;22.30;46.90;;;20.72;53.80;94597.00;4988569;28;20035;-62
2022/12/10 04:41:19;;;;;;;3.80;2.40;;;22.30;46.90;;;20.73;53.99;94606.63;4995092;28;20033;-62
2022/12/10 04:43:44;;;;;;;7.53;2.50;;;22.40;47.20;;;20.75;54.15;94598.31;5019740;28;20038;-61
2022/12/10 04:46:10;;;;;;;6.55;2.30;;;22.30;47.30;;;20.77;54.34;94599.59;5009845;28;20040;-61
2022/12/10 04:48:36;;;;;;;3.38;2.17;;;22.40;48.40;;;20.78;54.51;94601.19;4975594;28;20034;-62
2022/12/10 04:51:02;;;;;;;2.97;2.42;;;22.40;48.20;;;20.83;55.30;94605.69;4991968;28;20038;-62
2022/12/10 04:53:28;;;;;;;4.43;2.10;;;22.40;49.10;;;20.85;55.64;94600.06;4991555;28;20034;-61
2022/12/10 04:55:53;;;;;;;3.17;2.33;;;22.40;48.50;;;20.86;55.52;94593.63;5009607;28;20049;-62
2022/12/10 04:58:19;;;;;;;3.33;2.35;;;22.40;49.20;;;20.87;55.32;94589.88;5009275;28;20026;-61
2022/12/10 05:00:45;;;;;;;4.15;2.40;;;22.50;48.40;;;20.88;55.38;94596.81;4991703;28;20092;-61
2022/12/10 05:03:11;;;;;;;3.28;2.33;;;22.50;48.80;;;20.89;55.61;94595.72;5009680;28;20038;-62
2022/12/10 05:05:36;;;;;;;3.35;2.58;;;22.40;48.20;;;20.89;55.57;94590.38;4987824;28;20054;-61
2022/12/10 05:08:02;;;;;;;10.32;2.40;;;22.50;48.80;;;20.90;55.67;94582.06;4989866;28;20065;-62
2022/12/10 05:10:28;;;;;;;4.18;1.90;;;22.50;48.70;;;20.89;55.64;94574.34;4981022;28;20034;-60
2022/12/10 05:12:54;;;;;;;4.47;2.28;;;22.60;48.30;;;20.91;55.47;94582.84;5011403;28;20037;-60
2022/12/10 05:15:19;;;;;;;7.18;2.67;;;22.50;48.40;;;20.91;55.64;94590.88;5028914;28;20049;-62
2022/12/10 05:17:45;;;;;;;6.00;2.60;;;22.50;48.10;;;20.91;55.68;94583.66;5011038;28;20033;-61
2022/12/10 05:20:11;;;;;;;5.85;2.67;;;22.60;48.40;;;20.92;56.28;94585.25;5010996;28;20037;-61
2022/12/10 05:25:21;;;;;;;9.90;3.28;;;22.60;50.70;;;20.99;56.85;94579.50;5032781;28;20052;-60
2022/12/10 05:27:47;;;;;;;11.00;3.03;;;22.60;49.20;;;21.00;56.27;94586.44;5032564;28;20513;-61
2022/12/10 05:30:12;;;;;;;9.30;3.42;;;22.60;49.60;;;21.00;56.38;94581.09;5015098;28;20022;-61
2022/12/10 05:32:38;;;;;;;9.52;3.13;;;22.60;49.00;;;20.99;56.25;94572.28;5015130;28;20539;-61
2022/12/10 05:35:05;;;;;;;6.45;3.08;;;22.60;49.00;;;20.98;56.26;94573.38;5032974;28;20037;-61
2022/12/10 05:37:30;;;;;;;9.30;3.22;;;22.60;48.30;;;20.98;55.43;94575.25;5031232;28;20037;-60
2022/12/10 05:39:56;;;;;;;3.97;2.75;;;22.60;48.10;;;20.96;55.27;94577.44;5028503;28;20378;-61
2022/12/10 05:42:22;;;;;;;8.10;3.08;;;22.60;48.00;;;20.95;54.94;94581.97;5011374;28;20072;-60
2022/12/10 05:44:47;;;;;;;6.28;2.90;;;22.60;47.70;;;20.95;55.02;94583.84;5033076;28;20424;-61
2022/12/10 05:47:13;;;;;;;4.53;2.75;;;22.60;47.90;;;20.93;55.12;94591.38;5031747;28;20640;-61
2022/12/10 05:49:39;;;;;;;6.85;2.85;;;22.60;47.80;;;20.91;54.91;94599.69;4997924;28;20041;-60
2022/12/10 05:52:05;;;;;;;9.93;3.03;;;22.60;47.80;;;20.90;54.52;94602.66;5015053;28;20150;-60
2022/12/10 05:54:30;;;;;;;5.72;2.90;;;22.60;47.40;;;20.88;54.55;94596.81;5031491;28;20034;-61
2022/12/10 05:56:56;;;;;;;5.68;2.90;;;22.60;47.60;;;20.87;54.12;94588.00;5014998;28;20033;-60
2022/12/10 05:59:22;;;;;;;5.65;3.30;;;22.60;47.40;;;20.86;54.54;94593.63;5032206;28;20123;-61
2022/12/10 06:01:47;;;;;;;6.75;2.92;;;22.60;47.30;;;20.85;54.34;94598.19;5014160;28;21599;-61
2022/12/10 06:04:13;;;;;;;6.78;3.22;;;22.60;47.20;;;20.84;54.27;94603.81;5032677;28;20068;-60
2022/12/10 06:06:39;;;;;;;5.00;3.00;;;22.60;47.10;;;20.83;53.72;94602.22;5031192;28;20098;-61
2022/12/10 06:09:07;;;;;;;4.43;2.60;;;22.60;47.20;;;20.83;54.10;94596.88;4998578;28;20512;-61
2022/12/10 06:11:32;;;;;;;3.90;2.95;;;22.50;46.90;;;20.82;53.92;94592.59;5022151;28;20049;-60
2022/12/10 06:13:59;;;;;;;6.43;3.40;;;22.60;47.00;;;20.81;53.41;94599.81;5014904;28;20030;-60
2022/12/10 06:16:26;;;;;;;5.10;2.78;;;22.60;47.00;;;20.79;53.80;94602.78;5014547;28;20033;-61
2022/12/10 06:18:52;;;;;;;5.75;3.10;;;22.50;46.70;;;20.77;53.56;94598.81;5014825;28;20660;-60
2022/12/10 06:21:18;;;;;;;7.78;2.95;;;22.60;46.80;;;20.77;53.58;94596.13;5014398;28;20171;-60
2022/12/10 06:23:44;;;;;;;4.68;3.05;;;22.60;46.60;;;20.75;53.23;94604.44;5031917;28;20121;-60
2022/12/10 06:26:13;;;;;;;6.43;3.17;;;22.50;46.60;;;20.78;53.18;94595.06;5014620;28;20516;-61
2022/12/10 06:28:39;;;;;;;5.97;2.72;;;22.50;46.50;;;20.75;53.42;94599.09;5031978;28;20057;-60
2022/12/10 06:31:05;;;;;;;7.45;3.00;;;22.50;46.30;;;20.73;53.25;94595.94;4998216;28;20455;-61
2022/12/10 06:33:30;;;;;;;3.90;2.80;;;22.50;46.30;;;20.74;52.87;94589.50;4996844;28;20112;-61
2022/12/10 06:35:56;;;;;;;5.45;3.30;;;22.50;46.40;;;20.75;53.00;94599.09;5032141;28;20109;-60
2022/12/10 06:38:22;;;;;;;7.32;2.80;;;22.50;46.20;;;20.74;52.82;94608.22;5031803;28;20075;-61
2022/12/10 06:40:48;;;;;;;4.18;2.95;;;22.40;46.30;;;20.74;52.71;94604.75;5022324;28;20522;-60
2022/12/10 06:43:14;;;;;;;5.85;2.97;;;22.40;46.20;;;20.73;53.24;94589.78;5031832;28;20068;-61
2022/12/10 06:45:40;;;;;;;6.40;3.05;;;22.40;46.20;;;20.70;52.76;94593.84;5031434;28;20397;-60
2022/12/10 06:48:06;;;;;;;4.47;2.90;;;22.50;46.20;;;20.74;52.62;94604.75;4981924;28;20037;-60
2022/12/10 06:50:32;;;;;;;4.03;2.85;;;22.40;46.20;;;20.71;52.50;94599.97;5013635;28;20037;-60
2022/12/10 06:52:58;;;;;;;3.65;2.55;;;22.50;46.20;;;20.73;52.22;94609.28;5014115;28;20052;-60
2022/12/10 06:55:23;;;;;;;5.07;2.78;;;22.40;46.10;;;20.72;52.42;94607.69;5031109;28;20021;-61
2022/12/10 06:57:53;;;;;;;6.65;2.83;;;22.40;46.20;;;20.71;52.50;94608.78;5031451;28;20039;-60
2022/12/10 07:00:19;;;;;;;4.85;2.90;;;22.40;46.10;;;20.70;52.69;94609.88;4997371;28;20050;-60
2022/12/10 07:02:45;;;;;;;4.47;2.85;;;22.40;46.00;;;20.69;52.60;94610.97;5030423;28;20038;-60
2022/12/10 07:05:11;;;;;;;5.70;2.88;;;22.40;46.10;;;20.70;52.90;94609.88;4997545;28;20072;-61
2022/12/10 07:07:37;;;;;;;6.80;3.03;;;22.40;45.90;;;20.69;52.73;94613.63;5029520;28;20496;-60
2022/12/10 07:10:03;;;;;;;4.57;2.75;;;22.40;46.00;;;20.68;52.95;94612.03;4992185;28;20065;-61
2022/12/10 07:12:29;;;;;;;4.90;3.90;;;22.40;46.10;;;20.68;52.24;94612.03;5010577;28;20535;-60
2022/12/10 07:14:54;;;;;;;3.28;2.30;;;22.40;45.80;;;20.68;52.36;94612.03;5031421;28;20037;-60
2022/12/10 07:17:20;;;;;;;4.95;3.08;;;22.40;45.70;;;20.67;52.22;94617.66;5013150;28;20034;-61
2022/12/10 07:19:46;;;;;;;4.72;3.22;;;22.40;45.90;;;20.66;51.95;94616.88;5030628;28;20091;-61
2022/12/10 07:22:12;;;;;;;6.20;3.45;;;22.40;45.70;;;20.65;52.01;94619.84;5031094;28;20049;-61
2022/12/10 07:24:37;;;;;;;6.55;3.53;;;22.40;45.80;;;20.64;51.39;94616.38;4997478;28;20115;-61
2022/12/10 07:27:07;;;;;;;5.25;3.38;;;22.40;45.80;;;20.64;51.44;94615.59;5013411;28;20668;-61
2022/12/10 07:29:32;;;;;;;5.78;4.22;;;22.40;45.50;;;20.64;51.24;94615.59;5028746;28;20061;-61
2022/12/10 07:31:58;;;;;;;6.85;3.55;;;22.40;45.50;;;20.64;51.11;94623.59;5013399;28;20092;-61
2022/12/10 07:34:24;;;;;;;5.88;3.20;;;22.30;45.50;;;20.64;51.89;94626.28;5012866;28;20405;-61
2022/12/10 07:36:49;;;;;;;8.07;3.00;;;22.40;45.80;;;20.62;51.90;94623.09;5031001;28;20075;-62
2022/12/10 07:39:18;;;;;;;5.03;2.92;;;22.30;45.70;;;20.61;52.02;94622.28;5012885;28;20155;-61
2022/12/10 07:41:52;;;;;;;4.00;2.80;;;22.30;45.70;;;20.63;51.97;94624.69;4985476;28;20409;-61
2022/12/10 07:44:20;;;;;;;5.82;2.97;;;22.30;45.60;;;20.64;52.06;94628.94;4961895;28;20064;-61
2022/12/10 07:46:47;;;;;;;4.63;3.05;;;22.30;45.80;;;20.64;52.55;94627.06;4993159;28;20172;-61
2022/12/10 07:49:13;;;;;;;6.82;3.53;;;22.30;45.80;;;20.65;52.56;94633.19;4976876;28;20029;-61
2022/12/10 07:51:39;;;;;;;5.00;3.03;;;22.30;46.20;;;20.65;52.82;94628.66;4992442;28;20127;-61
2022/12/10 07:54:05;;;;;;;5.07;3.15;;;22.30;46.20;;;20.66;52.64;94630.25;5009655;28;20119;-61
2022/12/10 07:56:30;;;;;;;6.30;3.13;;;22.30;46.30;;;20.67;53.00;94626.47;5010508;28;20614;-61
2022/12/10 07:58:56;;;;;;;6.45;3.25;;;22.30;46.30;;;20.67;52.71;94634.50;4992831;28;20409;-61
2022/12/10 08:01:24;;;;;;;4.15;3.00;;;22.30;46.30;;;20.68;52.77;94638.75;4992546;28;20056;-62
2022/12/10 08:03:50;;;;;;;4.60;3.45;;;22.30;46.30;;;20.68;52.84;94632.63;5010287;28;20030;-62
2022/12/10 08:06:19;;;;;;;5.60;3.40;;;22.30;46.30;;;20.68;52.75;94627.28;4992940;28;20037;-62
2022/12/10 08:08:45;;;;;;;4.57;2.92;;;22.30;46.30;;;20.68;52.94;94630.75;4992988;28;20056;-61
2022/12/10 08:11:11;;;;;;;5.53;3.00;;;22.30;46.40;;;20.68;53.25;94628.06;5016412;28;20492;-61
2022/12/10 08:13:37;;;;;;;4.93;3.20;;;22.30;46.30;;;20.66;52.80;94618.75;4979008;28;20496;-61
2022/12/10 08:16:15;;;;;;;7.13;3.40;;;22.30;46.30;;;20.69;52.65;94621.66;5012156;28;20083;-61
2022/12/10 08:18:41;;;;;;;6.38;3.15;;;22.30;46.30;;;20.68;52.91;94628.06;5029805;28;20479;-61
2022/12/10 08:21:15;;;;;;;5.45;3.17;;;22.30;46.20;;;20.70;53.13;94635.78;5029842;28;20044;-62
2022/12/10 08:23:41;;;;;;;6.13;3.67;;;22.30;46.30;;;20.69;52.74;94635.00;5011630;28;20056;-61
2022/12/10 08:26:09;;;;;;;5.65;4.10;;;22.30;46.40;;;20.68;53.01;94628.06;5012259;28;20034;-62
2022/12/10 08:28:35;;;;;;;5.45;3.47;;;22.30;46.50;;;20.68;52.80;94627.28;5012221;28;20041;-61
2022/12/10 08:31:01;;;;;;;4.65;3.22;;;22.30;46.50;;;20.70;52.86;94635.78;5028207;28;20055;-61
2022/12/10 08:33:26;;;;;;;4.65;3.08;;;22.30;46.40;;;20.67;53.12;94626.47;5011569;28;20025;-61
2022/12/10 08:35:52;;;;;;;5.00;3.42;;;22.30;46.40;;;20.68;53.17;94633.41;4979632;28;20029;-61
2022/12/10 08:38:18;;;;;;;6.25;4.15;;;22.40;46.30;;;20.68;53.13;94638.75;4979242;28;20061;-61
2022/12/10 08:40:44;;;;;;;5.70;3.17;;;22.40;46.40;;;20.68;53.20;94636.09;4987552;28;20036;-61
2022/12/10 08:43:09;;;;;;;4.72;3.63;;;22.30;46.60;;;20.67;53.35;94636.38;5012017;28;20038;-62
2022/12/10 08:45:35;;;;;;;5.07;3.45;;;22.30;46.60;;;20.67;53.30;94637.16;5011475;28;20083;-62
2022/12/10 08:48:01;;;;;;;5.10;3.45;;;22.30;46.60;;;20.68;53.23;94645.97;4995642;28;20040;-61
2022/12/10 08:50:27;;;;;;;4.90;3.15;;;22.30;46.60;;;20.68;53.22;94645.97;5029239;28;20029;-64
2022/12/10 08:52:53;;;;;;;5.28;3.58;;;22.30;46.60;;;20.68;53.32;94643.31;5028539;28;20076;-61
2022/12/10 08:55:19;;;;;;;5.97;4.00;;;22.30;46.40;;;20.68;53.08;94644.09;5018879;28;20120;-61
2022/12/10 08:57:44;;;;;;;5.68;4.03;;;22.30;46.40;;;20.69;53.07;94648.38;4989321;28;20050;-61
2022/12/10 09:00:13;;;;;;;8.68;3.40;;;22.30;46.30;;;20.69;53.08;94645.69;4972640;28;20112;-61
2022/12/10 09:02:39;;;;;;;4.82;3.70;;;22.40;46.30;;;20.71;52.73;94643.53;4988645;28;20034;-61
2022/12/10 09:05:05;;;;;;;5.25;3.47;;;22.30;46.30;;;20.73;53.14;94657.38;4988928;28;20049;-62
2022/12/10 09:07:31;;;;;;;6.10;3.55;;;22.30;46.40;;;20.75;53.07;94655.22;4989334;28;20092;-61
2022/12/10 09:09:57;;;;;;;7.63;3.40;;;22.40;46.30;;;20.76;52.32;94648.78;4994089;28;20121;-61
2022/12/10 09:12:23;;;;;;;4.68;3.72;;;22.30;46.30;;;20.76;52.59;94654.13;5024107;28;20059;-62
2022/12/10 09:14:48;;;;;;;6.53;4.32;;;22.40;46.30;;;20.78;52.30;94643.94;5028029;28;20076;-61
2022/12/10 09:17:14;;;;;;;4.30;3.25;;;22.30;46.30;;;20.78;52.73;94643.94;5029208;28;20096;-61
2022/12/10 09:19:40;;;;;;;11.55;3.30;;;22.30;46.30;;;20.78;52.38;94638.59;5010395;28;20116;-61
2022/12/10 09:22:06;;;;;;;8.85;3.28;;;22.40;46.30;;;20.79;52.48;94650.88;5029024;28;20574;-62
2022/12/10 09:24:31;;;;;;;16.92;3.78;;;22.30;46.20;;;20.78;52.23;94653.84;5028766;28;20060;-62
2022/12/10 09:26:57;;;;;;;22.65;4.95;;;22.40;46.20;;;20.79;52.90;94664.25;4978716;28;20535;-62
2022/12/10 09:29:23;;;;;;;13.75;4.13;;;22.40;46.20;;;20.78;52.43;94662.66;5010595;28;20038;-62
2022/12/10 09:31:52;;;;;;;16.70;4.20;;;22.30;46.10;;;20.76;52.61;94656.00;5027874;28;20626;-62
2022/12/10 09:34:17;;;;;;;32.10;5.70;;;22.40;46.20;;;20.78;52.40;94668.00;5027424;28;20044;-62
2022/12/10 09:36:43;;;;;;;31.70;6.57;;;22.40;46.10;;;20.79;52.34;94666.91;4978543;28;20073;-62
2022/12/10 09:39:09;;;;;;;31.20;6.07;;;22.40;46.70;;;20.75;52.53;94665.91;5028559;28;20405;-61
2022/12/10 09:42:01;;;;;;;40.45;5.90;;;22.30;46.40;;;20.74;52.48;94664.31;5002118;28;20509;-61
2022/12/10 09:44:56;;;;;;;35.72;6.70;;;22.40;46.30;;;20.75;52.27;94662.44;4981870;28;20063;-61
2022/12/10 09:47:26;;;;;;;34.30;6.10;;;22.40;46.30;;;20.72;53.45;94663.81;5013520;28;20034;-62
2022/12/10 09:49:59;;;;;;;24.97;5.63;;;22.40;46.40;;;20.73;53.16;94668.06;4962360;28;20030;-62
2022/12/10 09:52:35;;;;;;;36.30;5.65;;;22.40;46.20;;;20.72;53.06;94658.47;5011279;28;20275;-62
2022/12/10 09:55:05;;;;;;;27.00;5.90;;;22.40;46.50;;;20.72;52.82;94655.78;5027587;28;20030;-61
2022/12/10 09:57:41;;;;;;;20.85;5.00;;;22.30;46.60;;;20.72;53.04;94661.16;4968254;28;20034;-61
2022/12/10 10:00:36;;;;;;;27.02;6.25;;;22.30;46.60;;;20.72;52.81;94661.16;5008200;23;20061;-40
2022/12/10 10:03:02;;;;;;;25.92;5.30;;;22.40;46.60;;;20.71;53.37;94658.75;5006540;28;20042;-40
2022/12/10 10:05:37;;;;;;;21.60;5.47;;;22.30;46.50;;;20.72;52.54;94658.47;5023899;28;20502;-39
2022/12/10 10:08:14;;;;;;;19.02;5.40;;;22.40;46.50;;;20.72;52.81;94666.47;4995688;28;20562;-39
2022/12/10 10:10:40;;;;;;;26.33;6.20;;;22.40;46.40;;;20.71;53.42;94658.75;5005584;28;20044;-39
2022/12/10 10:13:27;;;;;;;21.27;4.85;;;22.30;46.50;;;20.71;52.82;94662.22;5022699;28;20033;-39
2022/12/10 10:15:53;;;;;;;22.95;5.72;;;22.40;46.40;;;20.71;52.59;94675.59;4993279;28;20048;-40
2022/12/10 10:18:39;;;;;;;20.00;4.93;;;22.40;46.40;;;20.71;52.85;94664.09;5026727;28;20053;-39
2022/12/10 10:21:37;;;;;;;20.80;4.85;;;22.40;46.40;;;20.70;53.30;94660.63;5012881;28;20044;-39
2022/12/10 10:24:04;;;;;;;16.90;5.10;;;22.40;46.30;;;20.69;52.78;94653.69;4997012;28;20034;-40
2022/12/10 10:26:29;;;;;;;18.08;5.15;;;22.40;46.40;;;20.69;52.57;94656.38;5013214;28;20033;-41
2022/12/10 10:29:10;;;;;;;20.83;5.07;;;22.30;46.40;;;20.71;52.81;94672.13;5030611;28;20083;-39
2022/12/10 10:31:38;;;;;;;14.75;4.72;;;22.30;46.20;;;20.71;52.88;94664.09;5030462;28;20061;-39
2022/12/10 10:34:12;;;;;;;17.98;5.50;;;22.40;46.30;;;20.70;52.89;94652.63;5030468;28;20032;-39
2022/12/10 10:36:38;;;;;;;16.02;5.18;;;22.40;46.30;;;20.70;52.69;94657.97;5030892;28;20037;-40
2022/12/10 10:39:17;;;;;;;12.93;5.07;;;22.40;46.30;;;20.71;53.01;94659.56;5012779;28;20410;-40
2022/12/10 10:41:42;;;;;;;13.93;4.57;;;22.40;46.30;;;20.73;52.96;94661.94;5013596;28;20283;-39